sensor_id;sensor_type;location;lat;lon;timestamp;temperature;humidity
32139;DHT22;18644;48.700;9.210;2023-06-14T00:01:58;15.70;42.30
32139;DHT22;18644;48.700;9.210;2023-06-14T00:04:25;15.70;42.50
32139;DHT22;18644;48.700;9.210;2023-06-14T00:06:52;15.70;43.10
32139;DHT22;18644;48.700;9.210;2023-06-14T00:09:19;15.60;42.70
32139;DHT22;18644;48.700;9.210;2023-06-14T00:11:46;15.60;42.80
32139;DHT22;18644;48.700;9.210;2023-06-14T00:14:14;15.50;42.90
32139;DHT22;18644;48.700;9.210;2023-06-14T00:16:41;15.50;42.90
32139;DHT22;18644;48.700;9.210;2023-06-14T00:19:08;15.50;43.00
32139;DHT22;18644;48.700;9.210;2023-06-14T00:21:36;15.40;43.10
32139;DHT22;18644;48.700;9.210;2023-06-14T00:24:04;15.40;43.30
32139;DHT22;18644;48.700;9.210;2023-06-14T00:26:31;15.30;43.40
32139;DHT22;18644;48.700;9.210;2023-06-14T00:28:58;15.30;43.60
32139;DHT22;18644;48.700;9.210;2023-06-14T00:31:26;15.20;43.50
32139;DHT22;18644;48.700;9.210;2023-06-14T00:33:53;15.20;43.50
32139;DHT22;18644;48.700;9.210;2023-06-14T00:36:20;15.10;43.50
32139;DHT22;18644;48.700;9.210;2023-06-14T00:38:47;15.10;43.50
32139;DHT22;18644;48.700;9.210;2023-06-14T00:41:14;15.00;43.60
32139;DHT22;18644;48.700;9.210;2023-06-14T00:43:41;14.90;43.80
32139;DHT22;18644;48.700;9.210;2023-06-14T00:46:08;14.90;44.00
32139;DHT22;18644;48.700;9.210;2023-06-14T00:48:37;14.90;44.10
32139;DHT22;18644;48.700;9.210;2023-06-14T00:51:04;14.80;44.30
32139;DHT22;18644;48.700;9.210;2023-06-14T00:53:31;14.70;44.30
32139;DHT22;18644;48.700;9.210;2023-06-14T00:56:01;14.70;44.50
32139;DHT22;18644;48.700;9.210;2023-06-14T00:58:28;14.60;44.50
32139;DHT22;18644;48.700;9.210;2023-06-14T01:00:55;14.60;44.40
32139;DHT22;18644;48.700;9.210;2023-06-14T01:03:23;14.50;44.40
32139;DHT22;18644;48.700;9.210;2023-06-14T01:06:05;14.50;44.70
32139;DHT22;18644;48.700;9.210;2023-06-14T01:08:46;14.40;44.90
32139;DHT22;18644;48.700;9.210;2023-06-14T01:11:21;14.40;44.90
32139;DHT22;18644;48.700;9.210;2023-06-14T01:13:50;14.30;44.90
32139;DHT22;18644;48.700;9.210;2023-06-14T01:16:18;14.30;44.90
32139;DHT22;18644;48.700;9.210;2023-06-14T01:18:46;14.20;45.00
32139;DHT22;18644;48.700;9.210;2023-06-14T01:21:21;14.30;45.20
32139;DHT22;18644;48.700;9.210;2023-06-14T01:23:50;14.20;45.40
32139;DHT22;18644;48.700;9.210;2023-06-14T01:26:19;14.10;45.30
32139;DHT22;18644;48.700;9.210;2023-06-14T01:28:47;14.10;46.00
32139;DHT22;18644;48.700;9.210;2023-06-14T01:31:17;14.10;45.50
32139;DHT22;18644;48.700;9.210;2023-06-14T01:33:48;14.10;45.70
32139;DHT22;18644;48.700;9.210;2023-06-14T01:36:16;14.00;45.70
32139;DHT22;18644;48.700;9.210;2023-06-14T01:38:45;14.00;45.70
32139;DHT22;18644;48.700;9.210;2023-06-14T01:41:16;14.00;45.60
32139;DHT22;18644;48.700;9.210;2023-06-14T01:43:43;13.90;45.60
32139;DHT22;18644;48.700;9.210;2023-06-14T01:46:10;13.90;45.80
32139;DHT22;18644;48.700;9.210;2023-06-14T01:48:38;13.80;45.90
32139;DHT22;18644;48.700;9.210;2023-06-14T01:51:05;13.80;46.10
32139;DHT22;18644;48.700;9.210;2023-06-14T01:53:32;13.70;46.20
32139;DHT22;18644;48.700;9.210;2023-06-14T01:55:59;13.70;46.40
32139;DHT22;18644;48.700;9.210;2023-06-14T01:58:28;13.70;46.50
32139;DHT22;18644;48.700;9.210;2023-06-14T02:00:55;13.60;46.50
32139;DHT22;18644;48.700;9.210;2023-06-14T02:03:22;13.50;46.50
32139;DHT22;18644;48.700;9.210;2023-06-14T02:05:50;13.50;46.60
32139;DHT22;18644;48.700;9.210;2023-06-14T02:08:17;13.40;46.70
32139;DHT22;18644;48.700;9.210;2023-06-14T02:10:44;13.40;46.90
32139;DHT22;18644;48.700;9.210;2023-06-14T02:13:11;13.40;46.90
32139;DHT22;18644;48.700;9.210;2023-06-14T02:15:39;13.40;47.10
32139;DHT22;18644;48.700;9.210;2023-06-14T02:18:09;13.30;47.20
32139;DHT22;18644;48.700;9.210;2023-06-14T02:20:37;13.30;47.20
32139;DHT22;18644;48.700;9.210;2023-06-14T02:23:03;13.20;47.30
32139;DHT22;18644;48.700;9.210;2023-06-14T02:25:30;13.20;47.50
32139;DHT22;18644;48.700;9.210;2023-06-14T02:27:57;13.20;47.70
32139;DHT22;18644;48.700;9.210;2023-06-14T02:30:24;13.20;47.60
32139;DHT22;18644;48.700;9.210;2023-06-14T02:32:52;13.10;47.60
32139;DHT22;18644;48.700;9.210;2023-06-14T02:35:19;13.10;47.70
32139;DHT22;18644;48.700;9.210;2023-06-14T02:37:47;13.10;47.80
32139;DHT22;18644;48.700;9.210;2023-06-14T02:40:14;13.00;47.90
32139;DHT22;18644;48.700;9.210;2023-06-14T02:42:41;13.00;48.00
32139;DHT22;18644;48.700;9.210;2023-06-14T02:45:08;13.00;48.10
32139;DHT22;18644;48.700;9.210;2023-06-14T02:47:35;13.00;48.10
32139;DHT22;18644;48.700;9.210;2023-06-14T02:50:05;12.90;48.10
32139;DHT22;18644;48.700;9.210;2023-06-14T02:52:33;12.90;48.20
32139;DHT22;18644;48.700;9.210;2023-06-14T02:55:00;12.90;48.20
32139;DHT22;18644;48.700;9.210;2023-06-14T02:57:27;12.80;48.40
32139;DHT22;18644;48.700;9.210;2023-06-14T02:59:54;12.80;48.50
32139;DHT22;18644;48.700;9.210;2023-06-14T03:02:21;12.70;48.40
32139;DHT22;18644;48.700;9.210;2023-06-14T03:04:48;12.70;48.60
32139;DHT22;18644;48.700;9.210;2023-06-14T03:07:16;12.70;48.60
32139;DHT22;18644;48.700;9.210;2023-06-14T03:09:45;12.70;48.80
32139;DHT22;18644;48.700;9.210;2023-06-14T03:12:12;12.60;48.80
32139;DHT22;18644;48.700;9.210;2023-06-14T03:14:40;12.60;48.90
32139;DHT22;18644;48.700;9.210;2023-06-14T03:17:07;12.60;48.90
32139;DHT22;18644;48.700;9.210;2023-06-14T03:19:35;12.60;49.00
32139;DHT22;18644;48.700;9.210;2023-06-14T03:22:02;12.60;49.00
32139;DHT22;18644;48.700;9.210;2023-06-14T03:24:30;12.50;49.20
32139;DHT22;18644;48.700;9.210;2023-06-14T03:27:02;12.50;49.30
32139;DHT22;18644;48.700;9.210;2023-06-14T03:29:29;12.50;49.30
32139;DHT22;18644;48.700;9.210;2023-06-14T03:31:57;12.40;49.40
32139;DHT22;18644;48.700;9.210;2023-06-14T03:34:26;12.40;49.50
32139;DHT22;18644;48.700;9.210;2023-06-14T03:36:53;12.40;49.60
32139;DHT22;18644;48.700;9.210;2023-06-14T03:39:20;12.40;50.20
32139;DHT22;18644;48.700;9.210;2023-06-14T03:41:48;12.40;49.70
32139;DHT22;18644;48.700;9.210;2023-06-14T03:44:17;12.30;49.70
32139;DHT22;18644;48.700;9.210;2023-06-14T03:46:44;12.40;49.90
32139;DHT22;18644;48.700;9.210;2023-06-14T03:49:12;12.30;49.90
32139;DHT22;18644;48.700;9.210;2023-06-14T03:51:39;12.30;50.00
32139;DHT22;18644;48.700;9.210;2023-06-14T03:54:06;12.30;50.10
32139;DHT22;18644;48.700;9.210;2023-06-14T03:56:33;12.30;50.30
32139;DHT22;18644;48.700;9.210;2023-06-14T03:59:02;12.40;50.50
32139;DHT22;18644;48.700;9.210;2023-06-14T04:01:28;12.40;51.40
32139;DHT22;18644;48.700;9.210;2023-06-14T04:03:56;12.40;51.00
32139;DHT22;18644;48.700;9.210;2023-06-14T04:06:24;12.40;51.00
32139;DHT22;18644;48.700;9.210;2023-06-14T04:08:58;12.50;51.00
32139;DHT22;18644;48.700;9.210;2023-06-14T04:11:29;12.60;51.10
32139;DHT22;18644;48.700;9.210;2023-06-14T04:13:57;12.60;51.20
32139;DHT22;18644;48.700;9.210;2023-06-14T04:16:26;12.60;51.20
32139;DHT22;18644;48.700;9.210;2023-06-14T04:18:54;12.70;51.30
32139;DHT22;18644;48.700;9.210;2023-06-14T04:21:21;12.70;51.30
32139;DHT22;18644;48.700;9.210;2023-06-14T04:23:48;12.80;51.40
32139;DHT22;18644;48.700;9.210;2023-06-14T04:26:18;12.80;51.60
32139;DHT22;18644;48.700;9.210;2023-06-14T04:28:46;12.80;51.60
32139;DHT22;18644;48.700;9.210;2023-06-14T04:31:13;12.90;51.80
32139;DHT22;18644;48.700;9.210;2023-06-14T04:33:43;12.90;51.80
32139;DHT22;18644;48.700;9.210;2023-06-14T04:36:12;13.00;52.00
32139;DHT22;18644;48.700;9.210;2023-06-14T04:38:39;13.00;52.10
32139;DHT22;18644;48.700;9.210;2023-06-14T04:41:06;13.10;52.30
32139;DHT22;18644;48.700;9.210;2023-06-14T04:43:37;13.20;52.60
32139;DHT22;18644;48.700;9.210;2023-06-14T04:46:04;13.30;52.50
32139;DHT22;18644;48.700;9.210;2023-06-14T04:48:35;13.30;52.50
32139;DHT22;18644;48.700;9.210;2023-06-14T04:51:04;13.40;52.70
32139;DHT22;18644;48.700;9.210;2023-06-14T04:53:31;13.50;52.90
32139;DHT22;18644;48.700;9.210;2023-06-14T04:55:58;13.60;53.20
32139;DHT22;18644;48.700;9.210;2023-06-14T04:58:26;13.70;53.30
32139;DHT22;18644;48.700;9.210;2023-06-14T05:00:54;13.80;53.50
32139;DHT22;18644;48.700;9.210;2023-06-14T05:03:21;13.90;53.40
32139;DHT22;18644;48.700;9.210;2023-06-14T05:05:49;14.00;53.50
32139;DHT22;18644;48.700;9.210;2023-06-14T05:08:19;14.10;53.60
32139;DHT22;18644;48.700;9.210;2023-06-14T05:10:49;14.20;53.70
32139;DHT22;18644;48.700;9.210;2023-06-14T05:13:15;14.40;53.80
32139;DHT22;18644;48.700;9.210;2023-06-14T05:15:42;14.50;53.70
32139;DHT22;18644;48.700;9.210;2023-06-14T05:18:09;14.60;53.70
32139;DHT22;18644;48.700;9.210;2023-06-14T05:20:39;14.70;53.40
32139;DHT22;18644;48.700;9.210;2023-06-14T05:23:08;14.80;53.20
32139;DHT22;18644;48.700;9.210;2023-06-14T05:25:42;15.00;53.10
32139;DHT22;18644;48.700;9.210;2023-06-14T05:28:09;15.10;52.80
32139;DHT22;18644;48.700;9.210;2023-06-14T05:30:38;15.30;52.80
32139;DHT22;18644;48.700;9.210;2023-06-14T05:33:05;15.40;52.60
32139;DHT22;18644;48.700;9.210;2023-06-14T05:35:32;15.50;52.30
32139;DHT22;18644;48.700;9.210;2023-06-14T05:37:59;15.70;52.10
32139;DHT22;18644;48.700;9.210;2023-06-14T05:40:25;15.80;51.80
32139;DHT22;18644;48.700;9.210;2023-06-14T05:42:53;15.90;51.50
32139;DHT22;18644;48.700;9.210;2023-06-14T05:45:20;16.10;51.40
32139;DHT22;18644;48.700;9.210;2023-06-14T05:47:47;16.20;51.10
32139;DHT22;18644;48.700;9.210;2023-06-14T05:50:14;16.40;51.00
32139;DHT22;18644;48.700;9.210;2023-06-14T05:52:41;16.50;51.10
32139;DHT22;18644;48.700;9.210;2023-06-14T05:55:08;16.70;50.70
32139;DHT22;18644;48.700;9.210;2023-06-14T05:57:37;16.70;50.40
32139;DHT22;18644;48.700;9.210;2023-06-14T06:00:08;16.90;50.40
32139;DHT22;18644;48.700;9.210;2023-06-14T06:02:39;17.10;50.10
32139;DHT22;18644;48.700;9.210;2023-06-14T06:05:07;17.20;49.90
32139;DHT22;18644;48.700;9.210;2023-06-14T06:07:34;17.40;49.60
32139;DHT22;18644;48.700;9.210;2023-06-14T06:10:00;17.50;49.30
32139;DHT22;18644;48.700;9.210;2023-06-14T06:12:27;17.60;49.10
32139;DHT22;18644;48.700;9.210;2023-06-14T06:14:54;17.80;49.20
32139;DHT22;18644;48.700;9.210;2023-06-14T06:17:23;17.90;48.90
32139;DHT22;18644;48.700;9.210;2023-06-14T06:19:50;18.10;48.70
32139;DHT22;18644;48.700;9.210;2023-06-14T06:22:17;18.20;48.40
32139;DHT22;18644;48.700;9.210;2023-06-14T06:24:44;18.30;47.90
32139;DHT22;18644;48.700;9.210;2023-06-14T06:27:12;18.50;47.60
32139;DHT22;18644;48.700;9.210;2023-06-14T06:29:41;18.70;47.50
32139;DHT22;18644;48.700;9.210;2023-06-14T06:32:08;18.80;47.60
32139;DHT22;18644;48.700;9.210;2023-06-14T06:34:37;19.00;47.70
32139;DHT22;18644;48.700;9.210;2023-06-14T06:37:04;19.10;47.50
32139;DHT22;18644;48.700;9.210;2023-06-14T06:39:31;19.40;47.40
32139;DHT22;18644;48.700;9.210;2023-06-14T06:41:58;19.50;47.10
32139;DHT22;18644;48.700;9.210;2023-06-14T06:44:25;19.70;46.90
32139;DHT22;18644;48.700;9.210;2023-06-14T06:46:52;19.80;46.80
32139;DHT22;18644;48.700;9.210;2023-06-14T06:49:19;20.00;46.60
32139;DHT22;18644;48.700;9.210;2023-06-14T06:52:00;20.10;46.40
32139;DHT22;18644;48.700;9.210;2023-06-14T06:54:27;20.30;45.90
32139;DHT22;18644;48.700;9.210;2023-06-14T06:56:54;20.50;45.90
32139;DHT22;18644;48.700;9.210;2023-06-14T06:59:21;20.70;45.70
32139;DHT22;18644;48.700;9.210;2023-06-14T07:01:48;20.80;45.50
32139;DHT22;18644;48.700;9.210;2023-06-14T07:04:15;21.00;45.10
32139;DHT22;18644;48.700;9.210;2023-06-14T07:06:43;21.20;44.80
32139;DHT22;18644;48.700;9.210;2023-06-14T07:09:11;21.30;44.40
32139;DHT22;18644;48.700;9.210;2023-06-14T07:11:39;21.50;44.20
32139;DHT22;18644;48.700;9.210;2023-06-14T07:14:07;21.60;43.90
32139;DHT22;18644;48.700;9.210;2023-06-14T07:16:34;21.70;43.90
32139;DHT22;18644;48.700;9.210;2023-06-14T07:19:01;21.90;43.60
32139;DHT22;18644;48.700;9.210;2023-06-14T07:21:28;22.10;43.20
32139;DHT22;18644;48.700;9.210;2023-06-14T07:23:55;22.20;42.50
32139;DHT22;18644;48.700;9.210;2023-06-14T07:26:24;22.40;42.30
32139;DHT22;18644;48.700;9.210;2023-06-14T07:28:51;22.50;42.60
32139;DHT22;18644;48.700;9.210;2023-06-14T07:31:19;22.70;42.40
32139;DHT22;18644;48.700;9.210;2023-06-14T07:33:46;22.80;41.80
32139;DHT22;18644;48.700;9.210;2023-06-14T07:36:13;22.90;41.50
32139;DHT22;18644;48.700;9.210;2023-06-14T07:38:40;23.10;41.20
32139;DHT22;18644;48.700;9.210;2023-06-14T07:41:07;23.20;41.00
32139;DHT22;18644;48.700;9.210;2023-06-14T07:43:35;23.30;41.00
32139;DHT22;18644;48.700;9.210;2023-06-14T07:46:02;23.40;40.60
32139;DHT22;18644;48.700;9.210;2023-06-14T07:48:29;23.50;40.60
32139;DHT22;18644;48.700;9.210;2023-06-14T07:50:56;23.60;40.40
32139;DHT22;18644;48.700;9.210;2023-06-14T07:53:23;23.70;40.10
32139;DHT22;18644;48.700;9.210;2023-06-14T07:55:50;23.80;40.20
32139;DHT22;18644;48.700;9.210;2023-06-14T07:58:17;23.90;40.10
32139;DHT22;18644;48.700;9.210;2023-06-14T08:00:45;24.10;40.10
32139;DHT22;18644;48.700;9.210;2023-06-14T08:03:12;24.10;39.70
32139;DHT22;18644;48.700;9.210;2023-06-14T08:05:39;24.20;39.40
32139;DHT22;18644;48.700;9.210;2023-06-14T08:08:06;24.30;39.10
32139;DHT22;18644;48.700;9.210;2023-06-14T08:10:33;24.40;38.20
32139;DHT22;18644;48.700;9.210;2023-06-14T08:13:00;24.50;38.50
32139;DHT22;18644;48.700;9.210;2023-06-14T08:15:27;24.60;37.70
32139;DHT22;18644;48.700;9.210;2023-06-14T08:17:55;24.60;38.30
32139;DHT22;18644;48.700;9.210;2023-06-14T08:20:23;24.70;38.30
32139;DHT22;18644;48.700;9.210;2023-06-14T08:22:50;24.80;38.00
32139;DHT22;18644;48.700;9.210;2023-06-14T08:25:20;24.90;37.30
32139;DHT22;18644;48.700;9.210;2023-06-14T08:27:47;24.90;36.90
32139;DHT22;18644;48.700;9.210;2023-06-14T08:30:15;25.00;36.90
32139;DHT22;18644;48.700;9.210;2023-06-14T08:32:43;25.00;37.00
32139;DHT22;18644;48.700;9.210;2023-06-14T08:35:11;25.10;37.10
32139;DHT22;18644;48.700;9.210;2023-06-14T08:37:39;25.20;37.40
32139;DHT22;18644;48.700;9.210;2023-06-14T08:40:17;25.30;37.40
32139;DHT22;18644;48.700;9.210;2023-06-14T08:42:48;25.40;37.40
32139;DHT22;18644;48.700;9.210;2023-06-14T08:45:18;25.50;37.40
32139;DHT22;18644;48.700;9.210;2023-06-14T08:47:45;25.60;36.80
32139;DHT22;18644;48.700;9.210;2023-06-14T08:50:19;25.70;36.90
32139;DHT22;18644;48.700;9.210;2023-06-14T08:52:52;25.80;36.70
32139;DHT22;18644;48.700;9.210;2023-06-14T08:55:21;25.90;36.10
32139;DHT22;18644;48.700;9.210;2023-06-14T08:57:54;26.00;36.30
32139;DHT22;18644;48.700;9.210;2023-06-14T09:00:23;26.00;36.90
32139;DHT22;18644;48.700;9.210;2023-06-14T09:02:51;26.20;36.20
32139;DHT22;18644;48.700;9.210;2023-06-14T09:05:20;26.20;36.20
32139;DHT22;18644;48.700;9.210;2023-06-14T09:07:47;26.30;36.30
32139;DHT22;18644;48.700;9.210;2023-06-14T09:10:16;26.40;36.10
32139;DHT22;18644;48.700;9.210;2023-06-14T09:12:43;26.50;36.30
32139;DHT22;18644;48.700;9.210;2023-06-14T09:15:10;26.60;36.60
32139;DHT22;18644;48.700;9.210;2023-06-14T09:17:39;26.80;36.30
32139;DHT22;18644;48.700;9.210;2023-06-14T09:20:08;26.90;35.50
32139;DHT22;18644;48.700;9.210;2023-06-14T09:22:37;27.00;35.10
32139;DHT22;18644;48.700;9.210;2023-06-14T09:25:05;27.10;34.80
32139;DHT22;18644;48.700;9.210;2023-06-14T09:27:33;27.10;34.20
32139;DHT22;18644;48.700;9.210;2023-06-14T09:30:02;27.20;34.10
32139;DHT22;18644;48.700;9.210;2023-06-14T09:32:29;27.20;34.20
32139;DHT22;18644;48.700;9.210;2023-06-14T09:34:57;27.30;34.20
32139;DHT22;18644;48.700;9.210;2023-06-14T09:37:28;27.30;33.60
32139;DHT22;18644;48.700;9.210;2023-06-14T09:39:57;27.40;33.40
32139;DHT22;18644;48.700;9.210;2023-06-14T09:42:24;27.50;33.60
32139;DHT22;18644;48.700;9.210;2023-06-14T09:44:54;27.50;34.00
32139;DHT22;18644;48.700;9.210;2023-06-14T09:47:23;27.60;33.90
32139;DHT22;18644;48.700;9.210;2023-06-14T09:49:50;27.60;33.70
32139;DHT22;18644;48.700;9.210;2023-06-14T09:52:21;27.70;33.60
32139;DHT22;18644;48.700;9.210;2023-06-14T09:54:49;27.80;33.40
32139;DHT22;18644;48.700;9.210;2023-06-14T09:57:21;28.00;33.40
32139;DHT22;18644;48.700;9.210;2023-06-14T09:59:51;28.10;33.20
32139;DHT22;18644;48.700;9.210;2023-06-14T10:02:24;28.20;33.40
32139;DHT22;18644;48.700;9.210;2023-06-14T10:04:58;28.30;33.10
32139;DHT22;18644;48.700;9.210;2023-06-14T10:07:34;28.40;33.10
32139;DHT22;18644;48.700;9.210;2023-06-14T10:10:03;28.50;32.50
32139;DHT22;18644;48.700;9.210;2023-06-14T10:12:33;28.70;32.30
32139;DHT22;18644;48.700;9.210;2023-06-14T10:15:00;28.80;32.20
32139;DHT22;18644;48.700;9.210;2023-06-14T10:17:35;28.90;32.20
32139;DHT22;18644;48.700;9.210;2023-06-14T10:20:28;29.00;31.70
32139;DHT22;18644;48.700;9.210;2023-06-14T10:23:03;29.20;29.90
32139;DHT22;18644;48.700;9.210;2023-06-14T10:25:34;29.30;29.40
32139;DHT22;18644;48.700;9.210;2023-06-14T10:28:19;29.30;29.00
32139;DHT22;18644;48.700;9.210;2023-06-14T10:31:07;29.30;29.90
32139;DHT22;18644;48.700;9.210;2023-06-14T10:33:36;29.30;29.70
32139;DHT22;18644;48.700;9.210;2023-06-14T10:36:08;29.30;29.70
32139;DHT22;18644;48.700;9.210;2023-06-14T10:38:57;29.30;29.60
32139;DHT22;18644;48.700;9.210;2023-06-14T10:41:26;29.30;29.60
32139;DHT22;18644;48.700;9.210;2023-06-14T10:47:31;29.50;29.40
32139;DHT22;18644;48.700;9.210;2023-06-14T10:50:04;29.60;30.00
32139;DHT22;18644;48.700;9.210;2023-06-14T10:52:33;29.70;29.20
32139;DHT22;18644;48.700;9.210;2023-06-14T10:55:06;29.70;28.70
32139;DHT22;18644;48.700;9.210;2023-06-14T10:57:37;29.80;28.90
32139;DHT22;18644;48.700;9.210;2023-06-14T11:00:09;29.80;29.00
32139;DHT22;18644;48.700;9.210;2023-06-14T11:03:28;29.70;28.80
32139;DHT22;18644;48.700;9.210;2023-06-14T11:06:08;29.70;29.10
32139;DHT22;18644;48.700;9.210;2023-06-14T11:08:58;29.70;29.30
32139;DHT22;18644;48.700;9.210;2023-06-14T11:11:42;29.70;29.50
32139;DHT22;18644;48.700;9.210;2023-06-14T11:14:11;29.70;29.60
32139;DHT22;18644;48.700;9.210;2023-06-14T11:16:39;29.80;29.40
32139;DHT22;18644;48.700;9.210;2023-06-14T11:19:06;29.90;29.10
32139;DHT22;18644;48.700;9.210;2023-06-14T11:21:33;30.10;29.20
32139;DHT22;18644;48.700;9.210;2023-06-14T11:24:00;30.20;28.70
32139;DHT22;18644;48.700;9.210;2023-06-14T11:26:28;30.30;28.70
32139;DHT22;18644;48.700;9.210;2023-06-14T11:28:57;30.50;28.80
32139;DHT22;18644;48.700;9.210;2023-06-14T11:31:25;30.50;28.00
32139;DHT22;18644;48.700;9.210;2023-06-14T11:33:55;30.60;27.90
32139;DHT22;18644;48.700;9.210;2023-06-14T11:36:23;30.70;28.50
32139;DHT22;18644;48.700;9.210;2023-06-14T11:38:50;30.80;28.90
32139;DHT22;18644;48.700;9.210;2023-06-14T11:41:25;30.90;29.10
32139;DHT22;18644;48.700;9.210;2023-06-14T11:43:52;31.10;28.70
32139;DHT22;18644;48.700;9.210;2023-06-14T11:46:20;31.20;28.70
32139;DHT22;18644;48.700;9.210;2023-06-14T11:48:51;31.30;28.50
32139;DHT22;18644;48.700;9.210;2023-06-14T11:51:21;31.40;28.50
32139;DHT22;18644;48.700;9.210;2023-06-14T11:53:48;31.40;28.30
32139;DHT22;18644;48.700;9.210;2023-06-14T11:56:15;31.50;27.70
32139;DHT22;18644;48.700;9.210;2023-06-14T11:58:43;31.50;27.50
32139;DHT22;18644;48.700;9.210;2023-06-14T12:01:14;31.50;27.90
32139;DHT22;18644;48.700;9.210;2023-06-14T12:03:47;31.60;27.60
32139;DHT22;18644;48.700;9.210;2023-06-14T12:06:15;31.60;27.30
32139;DHT22;18644;48.700;9.210;2023-06-14T12:08:45;31.70;27.50
32139;DHT22;18644;48.700;9.210;2023-06-14T12:11:15;31.80;27.50
32139;DHT22;18644;48.700;9.210;2023-06-14T12:13:42;31.80;27.30
32139;DHT22;18644;48.700;9.210;2023-06-14T12:16:11;31.80;27.00
32139;DHT22;18644;48.700;9.210;2023-06-14T12:18:40;31.70;26.70
32139;DHT22;18644;48.700;9.210;2023-06-14T12:21:09;31.60;26.80
32139;DHT22;18644;48.700;9.210;2023-06-14T12:23:42;31.50;26.90
32139;DHT22;18644;48.700;9.210;2023-06-14T12:26:13;31.30;26.50
32139;DHT22;18644;48.700;9.210;2023-06-14T12:28:41;31.10;26.90
32139;DHT22;18644;48.700;9.210;2023-06-14T12:31:08;31.00;27.00
32139;DHT22;18644;48.700;9.210;2023-06-14T12:33:35;30.90;27.10
32139;DHT22;18644;48.700;9.210;2023-06-14T12:36:04;30.80;27.20
32139;DHT22;18644;48.700;9.210;2023-06-14T12:38:32;30.80;27.50
32139;DHT22;18644;48.700;9.210;2023-06-14T12:41:01;30.80;28.10
32139;DHT22;18644;48.700;9.210;2023-06-14T12:43:28;30.80;27.00
32139;DHT22;18644;48.700;9.210;2023-06-14T12:45:55;30.80;26.30
32139;DHT22;18644;48.700;9.210;2023-06-14T12:48:22;30.60;26.30
32139;DHT22;18644;48.700;9.210;2023-06-14T12:50:49;30.50;26.70
32139;DHT22;18644;48.700;9.210;2023-06-14T12:53:16;30.50;27.00
32139;DHT22;18644;48.700;9.210;2023-06-14T12:55:43;30.40;27.00
32139;DHT22;18644;48.700;9.210;2023-06-14T12:58:11;30.40;27.10
32139;DHT22;18644;48.700;9.210;2023-06-14T13:00:39;30.50;27.10
32139;DHT22;18644;48.700;9.210;2023-06-14T13:03:06;30.60;26.90
32139;DHT22;18644;48.700;9.210;2023-06-14T13:05:33;30.70;26.70
32139;DHT22;18644;48.700;9.210;2023-06-14T13:08:00;30.70;26.50
32139;DHT22;18644;48.700;9.210;2023-06-14T13:10:27;30.70;26.60
32139;DHT22;18644;48.700;9.210;2023-06-14T13:12:54;30.70;26.50
32139;DHT22;18644;48.700;9.210;2023-06-14T13:15:24;30.60;25.90
32139;DHT22;18644;48.700;9.210;2023-06-14T13:17:51;30.60;25.60
32139;DHT22;18644;48.700;9.210;2023-06-14T13:20:18;30.50;25.50
32139;DHT22;18644;48.700;9.210;2023-06-14T13:22:46;30.50;25.60
32139;DHT22;18644;48.700;9.210;2023-06-14T13:25:13;30.50;25.90
32139;DHT22;18644;48.700;9.210;2023-06-14T13:27:40;30.50;26.00
32139;DHT22;18644;48.700;9.210;2023-06-14T13:30:08;30.50;26.40
32139;DHT22;18644;48.700;9.210;2023-06-14T13:32:37;30.60;27.40
32139;DHT22;18644;48.700;9.210;2023-06-14T13:35:04;30.80;26.90
32139;DHT22;18644;48.700;9.210;2023-06-14T13:37:32;30.90;26.60
32139;DHT22;18644;48.700;9.210;2023-06-14T13:39:59;31.00;26.80
32139;DHT22;18644;48.700;9.210;2023-06-14T13:42:27;31.10;26.80
32139;DHT22;18644;48.700;9.210;2023-06-14T13:44:56;31.30;26.40
32139;DHT22;18644;48.700;9.210;2023-06-14T13:47:23;31.40;26.00
32139;DHT22;18644;48.700;9.210;2023-06-14T13:49:52;31.50;25.60
32139;DHT22;18644;48.700;9.210;2023-06-14T13:52:19;31.50;25.60
32139;DHT22;18644;48.700;9.210;2023-06-14T13:54:46;31.60;25.50
32139;DHT22;18644;48.700;9.210;2023-06-14T13:57:13;31.60;25.50
32139;DHT22;18644;48.700;9.210;2023-06-14T13:59:40;31.60;25.40
32139;DHT22;18644;48.700;9.210;2023-06-14T14:02:09;31.70;25.60
32139;DHT22;18644;48.700;9.210;2023-06-14T14:04:37;31.80;25.70
32139;DHT22;18644;48.700;9.210;2023-06-14T14:07:06;31.90;26.10
32139;DHT22;18644;48.700;9.210;2023-06-14T14:09:36;32.10;26.10
32139;DHT22;18644;48.700;9.210;2023-06-14T14:12:05;32.20;25.70
32139;DHT22;18644;48.700;9.210;2023-06-14T14:14:33;32.20;26.00
32139;DHT22;18644;48.700;9.210;2023-06-14T14:17:00;32.30;26.50
32139;DHT22;18644;48.700;9.210;2023-06-14T14:19:27;32.40;26.10
32139;DHT22;18644;48.700;9.210;2023-06-14T14:21:54;32.50;25.60
32139;DHT22;18644;48.700;9.210;2023-06-14T14:24:22;32.50;25.70
32139;DHT22;18644;48.700;9.210;2023-06-14T14:26:49;32.60;24.90
32139;DHT22;18644;48.700;9.210;2023-06-14T14:29:19;32.60;25.00
32139;DHT22;18644;48.700;9.210;2023-06-14T14:31:46;32.50;24.70
32139;DHT22;18644;48.700;9.210;2023-06-14T14:34:16;32.50;24.30
32139;DHT22;18644;48.700;9.210;2023-06-14T14:36:44;32.30;24.50
32139;DHT22;18644;48.700;9.210;2023-06-14T14:39:11;32.30;25.10
32139;DHT22;18644;48.700;9.210;2023-06-14T14:41:39;32.30;25.70
32139;DHT22;18644;48.700;9.210;2023-06-14T14:44:07;32.30;25.50
32139;DHT22;18644;48.700;9.210;2023-06-14T14:46:34;32.40;25.60
32139;DHT22;18644;48.700;9.210;2023-06-14T14:49:02;32.40;25.70
32139;DHT22;18644;48.700;9.210;2023-06-14T14:51:29;32.50;25.80
32139;DHT22;18644;48.700;9.210;2023-06-14T14:53:56;32.50;25.80
32139;DHT22;18644;48.700;9.210;2023-06-14T14:56:24;32.50;26.10
32139;DHT22;18644;48.700;9.210;2023-06-14T14:58:52;32.50;25.30
32139;DHT22;18644;48.700;9.210;2023-06-14T15:01:19;32.50;25.50
32139;DHT22;18644;48.700;9.210;2023-06-14T15:03:46;32.50;25.30
32139;DHT22;18644;48.700;9.210;2023-06-14T15:06:13;32.50;25.40
32139;DHT22;18644;48.700;9.210;2023-06-14T15:08:41;32.60;25.70
32139;DHT22;18644;48.700;9.210;2023-06-14T15:11:08;32.60;25.70
32139;DHT22;18644;48.700;9.210;2023-06-14T15:13:35;32.70;25.80
32139;DHT22;18644;48.700;9.210;2023-06-14T15:16:04;32.60;25.90
32139;DHT22;18644;48.700;9.210;2023-06-14T15:18:31;32.50;25.30
32139;DHT22;18644;48.700;9.210;2023-06-14T15:20:58;32.40;25.30
32139;DHT22;18644;48.700;9.210;2023-06-14T15:23:25;32.40;25.70
32139;DHT22;18644;48.700;9.210;2023-06-14T15:25:53;32.30;25.90
32139;DHT22;18644;48.700;9.210;2023-06-14T15:28:19;32.30;25.70
32139;DHT22;18644;48.700;9.210;2023-06-14T15:30:48;32.40;25.20
32139;DHT22;18644;48.700;9.210;2023-06-14T15:33:16;32.40;24.70
32139;DHT22;18644;48.700;9.210;2023-06-14T15:35:43;32.30;24.60
32139;DHT22;18644;48.700;9.210;2023-06-14T15:38:10;32.30;24.80
32139;DHT22;18644;48.700;9.210;2023-06-14T15:40:37;32.30;25.30
32139;DHT22;18644;48.700;9.210;2023-06-14T15:43:04;32.30;25.40